Time;durP1;ratioP1;P1;durP2;ratioP2;P2;SDS_P1;SDS_P2;PMS_P1;PMS_P2;Temp;Humidity;BMP_temperature;BMP_pressure;BME280_temperature;BME280_humidity;BME280_pressure;Samples;Min_cycle;Max_cycle;Signal;HPM_P1;HPM_P2
2022/05/15 00:00:51;;;;;;;15.88;8.77;;;16.40;83.60;;;;;;4992507;28;20053;-60
2022/05/15 00:03:20;;;;;;;18.10;9.45;;;16.40;83.80;;;;;;4991984;28;20407;-59
2022/05/15 00:05:51;;;;;;;14.48;8.48;;;16.30;83.20;;;;;;4991368;28;20033;-56
2022/05/15 00:08:17;;;;;;;15.20;8.75;;;16.20;83.00;;;;;;4991472;28;20552;-58
2022/05/15 00:10:44;;;;;;;15.63;8.70;;;16.20;82.40;;;;;;4992009;28;20114;-58
2022/05/15 00:13:12;;;;;;;19.40;9.20;;;16.10;82.90;;;;;;4991655;28;20451;-57
2022/05/15 00:15:39;;;;;;;17.20;9.00;;;15.90;83.60;;;;;;4991022;28;20453;-57
2022/05/15 00:18:05;;;;;;;17.55;9.10;;;15.80;83.20;;;;;;4990680;28;20125;-58
2022/05/15 00:20:31;;;;;;;17.42;8.15;;;15.70;83.60;;;;;;4992650;28;20035;-58
2022/05/15 00:22:56;;;;;;;19.52;8.27;;;15.60;83.80;;;;;;4991815;28;20034;-59
2022/05/15 00:25:22;;;;;;;18.90;8.35;;;15.60;84.30;;;;;;4991568;28;20040;-58
2022/05/15 00:27:48;;;;;;;16.98;8.27;;;15.60;84.40;;;;;;4991216;28;20030;-58
2022/05/15 00:30:15;;;;;;;16.75;8.05;;;15.60;84.40;;;;;;4991303;28;20533;-60
2022/05/15 00:32:41;;;;;;;20.83;8.82;;;15.70;84.90;;;;;;4990848;28;20034;-60
2022/05/15 00:35:07;;;;;;;17.88;9.40;;;15.70;85.20;;;;;;4990068;28;20049;-61
2022/05/15 00:37:33;;;;;;;16.30;9.27;;;15.80;85.20;;;;;;4992143;28;20038;-60
2022/05/15 00:39:58;;;;;;;15.75;9.02;;;15.80;85.60;;;;;;4996034;28;20402;-60
2022/05/15 00:42:24;;;;;;;19.58;9.25;;;15.80;85.80;;;;;;4995143;28;20387;-58
2022/05/15 00:44:50;;;;;;;17.10;8.82;;;15.70;85.80;;;;;;4995634;28;20027;-59
2022/05/15 00:47:15;;;;;;;18.42;10.23;;;15.60;85.90;;;;;;4995183;28;20038;-59
2022/05/15 00:49:45;;;;;;;27.58;15.70;;;15.60;86.30;;;;;;4994668;28;20031;-58
2022/05/15 00:52:14;;;;;;;24.88;12.50;;;15.50;86.90;;;;;;4994612;28;20030;-59
2022/05/15 00:55:04;;;;;;;18.48;9.73;;;15.40;86.70;;;;;;4994962;28;20026;-57
2022/05/15 00:57:38;;;;;;;50.97;31.42;;;15.30;86.90;;;;;;4993421;28;20042;-57
2022/05/15 01:00:04;;;;;;;38.05;23.98;;;15.20;87.50;;;;;;4994212;28;20049;-57
2022/05/15 01:02:39;;;;;;;26.05;12.98;;;15.20;88.00;;;;;;4995118;28;20038;-56
2022/05/15 01:05:05;;;;;;;14.30;8.82;;;15.00;88.30;;;;;;4993188;28;20073;-60
2022/05/15 01:07:31;;;;;;;19.33;9.45;;;15.00;88.30;;;;;;4994904;28;20018;-59
2022/05/15 01:09:59;;;;;;;18.00;8.75;;;14.90;88.30;;;;;;4994376;28;20058;-55
2022/05/15 01:12:25;;;;;;;16.25;8.68;;;14.90;88.50;;;;;;4995045;28;20034;-59
2022/05/15 01:14:51;;;;;;;32.20;18.98;;;14.90;88.90;;;;;;4994926;28;20034;-59
2022/05/15 01:17:17;;;;;;;21.05;8.60;;;14.80;89.10;;;;;;4994798;28;20473;-59
2022/05/15 01:19:43;;;;;;;16.25;8.15;;;14.60;88.90;;;;;;4994604;28;20038;-57
2022/05/15 01:22:11;;;;;;;19.10;8.90;;;14.70;89.00;;;;;;4994425;28;20101;-58
2022/05/15 01:24:37;;;;;;;18.83;8.85;;;14.70;89.40;;;;;;4994255;28;20030;-59
2022/05/15 01:27:07;;;;;;;21.38;13.13;;;14.70;89.30;;;;;;4994801;28;20422;-54
2022/05/15 01:29:36;;;;;;;24.85;12.60;;;14.60;89.00;;;;;;4994391;28;20026;-58
2022/05/15 01:32:04;;;;;;;15.60;8.57;;;14.60;89.50;;;;;;4994374;28;20033;-59
2022/05/15 01:34:30;;;;;;;15.52;8.20;;;14.60;89.40;;;;;;4994018;28;20062;-58
2022/05/15 01:36:57;;;;;;;16.00;9.05;;;14.40;89.50;;;;;;4993712;28;20399;-56
2022/05/15 01:39:23;;;;;;;18.08;8.55;;;14.50;89.30;;;;;;4994784;28;20080;-56
2022/05/15 01:41:48;;;;;;;18.05;8.60;;;14.40;89.70;;;;;;4993189;28;20504;-58
2022/05/15 01:44:14;;;;;;;19.17;9.05;;;14.40;90.10;;;;;;4993822;28;20037;-59
2022/05/15 01:46:40;;;;;;;15.85;8.27;;;14.40;90.40;;;;;;4993895;28;20043;-58
2022/05/15 01:49:06;;;;;;;17.05;8.63;;;14.40;90.50;;;;;;4991894;28;20042;-57
2022/05/15 01:51:34;;;;;;;17.23;8.48;;;14.50;90.40;;;;;;4992902;28;20022;-56
2022/05/15 01:54:01;;;;;;;12.25;7.68;;;14.50;90.40;;;;;;4993132;28;20109;-56
2022/05/15 01:56:27;;;;;;;18.90;8.80;;;14.50;90.40;;;;;;4993309;28;20413;-57
2022/05/15 01:58:53;;;;;;;12.75;7.72;;;14.60;90.10;;;;;;4993637;28;20549;-56
2022/05/15 02:01:19;;;;;;;19.77;8.60;;;14.60;89.40;;;;;;4994050;28;20062;-57
2022/05/15 02:03:45;;;;;;;14.13;7.63;;;14.50;89.10;;;;;;4993354;28;20030;-60
2022/05/15 02:06:10;;;;;;;17.75;9.15;;;14.30;89.60;;;;;;4993530;28;20030;-57
2022/05/15 02:08:37;;;;;;;17.80;8.73;;;14.20;90.20;;;;;;4993337;28;20520;-58
2022/05/15 02:11:03;;;;;;;21.75;9.20;;;14.20;90.50;;;;;;4993482;28;20034;-60
2022/05/15 02:13:29;;;;;;;17.23;8.88;;;14.20;90.80;;;;;;4993548;28;20110;-58
2022/05/15 02:15:55;;;;;;;18.83;8.10;;;14.20;90.90;;;;;;4993377;28;20402;-60
2022/05/15 02:18:20;;;;;;;13.60;7.65;;;14.10;91.20;;;;;;4993009;28;20054;-59
2022/05/15 02:20:46;;;;;;;18.02;9.10;;;14.20;91.20;;;;;;4993278;28;20121;-54
2022/05/15 02:23:12;;;;;;;13.95;7.50;;;14.30;91.00;;;;;;4992965;28;20034;-55
2022/05/15 02:25:38;;;;;;;15.88;7.95;;;14.30;91.40;;;;;;4993223;28;20111;-58
2022/05/15 02:28:04;;;;;;;16.58;8.23;;;14.40;91.30;;;;;;4994231;28;20038;-57
2022/05/15 02:30:30;;;;;;;16.15;8.05;;;14.50;91.30;;;;;;4993120;28;20089;-57
2022/05/15 02:32:56;;;;;;;23.42;8.50;;;14.40;90.80;;;;;;4991567;28;20034;-57
2022/05/15 02:35:22;;;;;;;17.88;9.57;;;14.20;91.10;;;;;;4993222;28;20045;-60
2022/05/15 02:37:48;;;;;;;20.65;8.95;;;14.10;91.40;;;;;;4992983;28;20034;-56
2022/05/15 02:40:19;;;;;;;17.48;8.95;;;14.00;91.40;;;;;;4993659;28;20129;-59
2022/05/15 02:42:44;;;;;;;22.02;8.55;;;13.80;91.80;;;;;;4993334;28;20165;-55
2022/05/15 02:45:11;;;;;;;14.85;8.27;;;13.70;92.20;;;;;;4991396;28;20117;-58
2022/05/15 02:47:36;;;;;;;18.27;9.40;;;13.70;92.30;;;;;;4993092;28;20085;-56
2022/05/15 02:52:46;;;;;;;18.08;8.20;;;13.60;92.80;;;;;;4991711;28;20034;-60
2022/05/15 02:55:12;;;;;;;21.15;9.38;;;13.60;92.90;;;;;;4992123;28;20104;-58
2022/05/15 02:57:40;;;;;;;16.20;8.43;;;13.60;92.90;;;;;;4992541;28;20456;-58
2022/05/15 03:00:09;;;;;;;19.40;8.18;;;13.60;92.90;;;;;;4992164;28;20257;-57
2022/05/15 03:02:36;;;;;;;16.73;7.70;;;13.60;92.90;;;;;;4992620;28;20077;-57
2022/05/15 03:05:02;;;;;;;14.13;8.50;;;13.50;92.90;;;;;;4992757;28;20035;-60
2022/05/15 03:07:28;;;;;;;18.05;8.82;;;13.60;92.90;;;;;;4992516;28;20053;-57
2022/05/15 03:09:54;;;;;;;17.20;9.20;;;13.60;93.00;;;;;;4992354;28;20046;-59
2022/05/15 03:12:19;;;;;;;14.52;8.38;;;13.70;93.10;;;;;;4992381;28;20034;-58
2022/05/15 03:14:45;;;;;;;14.65;8.18;;;13.70;93.10;;;;;;4991937;28;20048;-61
2022/05/15 03:17:10;;;;;;;16.63;8.35;;;13.70;93.20;;;;;;4991703;28;20551;-57
2022/05/15 03:19:36;;;;;;;14.23;8.23;;;13.60;93.30;;;;;;4993211;28;20458;-60
2022/05/15 03:22:02;;;;;;;19.27;8.68;;;13.70;93.20;;;;;;4992705;28;20450;-60
2022/05/15 03:24:28;;;;;;;14.80;8.57;;;13.70;93.00;;;;;;4992737;28;20042;-59
2022/05/15 03:26:53;;;;;;;17.58;9.00;;;13.60;93.00;;;;;;4992635;28;20089;-57
2022/05/15 03:29:19;;;;;;;16.25;8.43;;;13.60;93.20;;;;;;4992524;28;20081;-57
2022/05/15 03:31:46;;;;;;;17.17;8.85;;;13.50;93.30;;;;;;4993070;28;20069;-59
2022/05/15 03:34:13;;;;;;;14.82;8.27;;;13.40;93.70;;;;;;4992976;28;20041;-58
2022/05/15 03:36:41;;;;;;;16.17;8.00;;;13.40;93.70;;;;;;4991609;28;20069;-57
2022/05/15 03:39:08;;;;;;;13.02;7.80;;;13.50;93.50;;;;;;4992857;28;20137;-59
2022/05/15 03:41:35;;;;;;;17.60;8.18;;;13.50;93.50;;;;;;4992627;28;20049;-58
2022/05/15 03:44:01;;;;;;;18.52;8.50;;;13.40;93.80;;;;;;4991819;28;20125;-56
2022/05/15 03:46:27;;;;;;;12.23;8.05;;;13.30;94.40;;;;;;4992273;28;20498;-60
2022/05/15 03:48:52;;;;;;;14.82;8.75;;;13.30;94.40;;;;;;4992363;28;20077;-56
2022/05/15 03:51:18;;;;;;;16.67;8.25;;;13.30;94.10;;;;;;4991457;28;20038;-57
2022/05/15 03:53:44;;;;;;;13.48;7.57;;;13.30;94.00;;;;;;4991708;28;20108;-56
2022/05/15 03:56:10;;;;;;;16.67;9.13;;;13.20;93.90;;;;;;4990530;28;20074;-59
2022/05/15 03:58:38;;;;;;;16.70;8.93;;;13.10;94.00;;;;;;4993073;28;20117;-54
2022/05/15 04:01:05;;;;;;;14.60;7.47;;;13.00;94.40;;;;;;4992766;28;20405;-59
2022/05/15 04:03:31;;;;;;;16.27;7.80;;;13.10;94.40;;;;;;4992317;28;20482;-56
2022/05/15 04:05:57;;;;;;;25.70;9.32;;;13.20;94.30;;;;;;4992251;28;20100;-59
2022/05/15 04:08:23;;;;;;;13.98;8.13;;;13.20;94.40;;;;;;4991869;28;20041;-58
2022/05/15 04:10:49;;;;;;;14.48;7.90;;;13.30;94.30;;;;;;4992463;28;20045;-57
2022/05/15 04:13:15;;;;;;;17.10;8.43;;;13.30;93.90;;;;;;4991603;28;20548;-59
2022/05/15 04:15:41;;;;;;;14.65;8.07;;;13.40;93.80;;;;;;4992294;28;20034;-56
2022/05/15 04:18:09;;;;;;;19.10;8.43;;;13.40;93.70;;;;;;4992595;28;20529;-56
2022/05/15 04:20:35;;;;;;;14.60;8.45;;;13.40;93.60;;;;;;4992145;28;20030;-57
2022/05/15 04:23:01;;;;;;;18.70;8.50;;;13.40;93.20;;;;;;4991958;28;20573;-57
2022/05/15 04:25:26;;;;;;;15.68;8.32;;;13.40;93.40;;;;;;4991608;28;20137;-59
2022/05/15 04:27:52;;;;;;;17.33;8.30;;;13.20;93.50;;;;;;4991929;28;20408;-60
2022/05/15 04:30:21;;;;;;;16.05;8.50;;;13.20;93.60;;;;;;4992245;28;20041;-57
2022/05/15 04:32:47;;;;;;;17.42;8.10;;;13.10;93.70;;;;;;4992070;28;20179;-56
2022/05/15 04:35:13;;;;;;;19.52;9.18;;;13.20;93.90;;;;;;4991825;28;20109;-58
2022/05/15 04:37:39;;;;;;;15.27;7.68;;;13.30;93.60;;;;;;4991840;28;20040;-57
2022/05/15 04:40:06;;;;;;;20.95;8.23;;;13.30;93.50;;;;;;4992274;28;20040;-59
2022/05/15 04:42:33;;;;;;;15.77;9.10;;;13.30;93.30;;;;;;4991475;28;20030;-57
2022/05/15 04:44:58;;;;;;;18.00;8.68;;;13.40;93.20;;;;;;4992247;28;20035;-57
2022/05/15 04:47:24;;;;;;;20.50;9.80;;;13.40;92.90;;;;;;4991080;28;20057;-54
2022/05/15 04:49:51;;;;;;;20.20;9.30;;;13.40;92.70;;;;;;4992056;28;20027;-56
2022/05/15 04:52:16;;;;;;;14.93;8.20;;;13.30;93.20;;;;;;4989802;28;20042;-56
2022/05/15 04:54:42;;;;;;;23.63;9.23;;;13.40;93.30;;;;;;4992032;28;20042;-54
2022/05/15 04:57:07;;;;;;;21.17;9.07;;;13.30;93.10;;;;;;4990037;28;20046;-57
2022/05/15 04:59:33;;;;;;;24.90;8.90;;;13.30;92.80;;;;;;4991842;28;20034;-57
2022/05/15 05:01:58;;;;;;;20.90;8.02;;;13.30;93.00;;;;;;4991515;28;20030;-54
2022/05/15 05:04:25;;;;;;;18.98;7.85;;;13.20;93.20;;;;;;4991102;28;20161;-57
2022/05/15 05:06:51;;;;;;;20.38;8.95;;;13.30;93.50;;;;;;4991497;28;20065;-57
2022/05/15 05:09:16;;;;;;;19.48;8.65;;;13.30;93.10;;;;;;4988779;28;20074;-57
2022/05/15 05:11:42;;;;;;;16.67;8.23;;;13.50;93.30;;;;;;4992115;28;20445;-56
2022/05/15 05:14:08;;;;;;;18.83;8.55;;;13.50;93.20;;;;;;4990067;28;20046;-57
2022/05/15 05:16:34;;;;;;;16.05;8.82;;;13.70;93.00;;;;;;4991139;28;20066;-57
2022/05/15 05:19:01;;;;;;;15.43;7.72;;;13.80;92.80;;;;;;4991123;28;20120;-58
2022/05/15 05:21:27;;;;;;;17.30;7.65;;;13.80;92.70;;;;;;4992463;28;20038;-58
2022/05/15 05:23:53;;;;;;;17.30;8.27;;;13.80;92.60;;;;;;4993525;28;20108;-56
2022/05/15 05:26:18;;;;;;;20.55;8.05;;;13.80;92.30;;;;;;4995298;28;20046;-57
2022/05/15 05:28:44;;;;;;;15.85;8.10;;;13.90;92.20;;;;;;4995133;28;20510;-56
2022/05/15 05:31:10;;;;;;;14.23;8.05;;;13.80;92.20;;;;;;4995485;28;20034;-57
2022/05/15 05:33:39;;;;;;;16.35;8.48;;;13.80;92.00;;;;;;4994661;28;20030;-58
2022/05/15 05:36:06;;;;;;;16.77;7.30;;;14.00;91.70;;;;;;4994190;28;20046;-57
2022/05/15 05:38:32;;;;;;;14.43;8.13;;;14.10;91.70;;;;;;4992900;28;20053;-56
2022/05/15 05:40:57;;;;;;;14.98;7.05;;;14.10;91.80;;;;;;4994398;28;20034;-58
2022/05/15 05:43:23;;;;;;;15.27;7.57;;;14.20;91.40;;;;;;4994059;28;20038;-58
2022/05/15 05:45:48;;;;;;;17.35;8.25;;;14.30;91.40;;;;;;4994082;28;20042;-56
2022/05/15 05:48:14;;;;;;;14.73;6.97;;;14.40;91.40;;;;;;4994560;28;20422;-57
2022/05/15 05:50:40;;;;;;;19.45;6.88;;;14.60;91.10;;;;;;4992822;28;20391;-57
2022/05/15 05:53:06;;;;;;;13.63;6.90;;;14.70;90.80;;;;;;4994885;28;20037;-58
2022/05/15 05:55:32;;;;;;;13.95;7.15;;;14.80;90.50;;;;;;4994077;28;20058;-58
2022/05/15 05:57:58;;;;;;;10.45;7.05;;;14.90;90.40;;;;;;4994968;28;20509;-59
2022/05/15 06:00:30;;;;;;;14.75;7.38;;;15.00;90.00;;;;;;4993280;28;20394;-56
2022/05/15 06:04:39;;;;;;;18.30;7.95;;;15.00;90.00;;;;;;4993961;28;20516;-58
2022/05/15 06:05:43;;;;;;;16.00;7.13;;;15.10;89.10;;;;;;4992578;28;20053;-57
2022/05/15 06:08:10;;;;;;;14.43;8.02;;;15.10;90.00;;;;;;4994055;28;20092;-58
2022/05/15 06:10:36;;;;;;;12.55;7.57;;;15.20;89.80;;;;;;4994374;28;20049;-58
2022/05/15 06:13:02;;;;;;;13.60;6.38;;;15.30;88.60;;;;;;4994472;28;20041;-59
2022/05/15 06:15:27;;;;;;;12.10;6.13;;;15.40;88.50;;;;;;4993828;28;20042;-57
2022/05/15 06:17:53;;;;;;;12.80;6.93;;;15.50;88.20;;;;;;4993826;28;20121;-56
2022/05/15 06:20:18;;;;;;;14.18;7.35;;;15.60;87.20;;;;;;4993729;28;20751;-56
2022/05/15 06:22:44;;;;;;;13.93;6.22;;;15.70;86.90;;;;;;4992908;28;20055;-59
2022/05/15 06:25:10;;;;;;;13.02;7.20;;;15.80;86.40;;;;;;4993374;28;20030;-58
2022/05/15 06:27:39;;;;;;;9.65;6.15;;;15.60;86.90;;;;;;4993801;28;20048;-56
2022/05/15 06:30:05;;;;;;;15.80;6.50;;;15.80;86.80;;;;;;4993590;28;20574;-61
2022/05/15 06:32:31;;;;;;;11.57;6.82;;;15.90;86.10;;;;;;4993605;28;20057;-57
2022/05/15 06:34:56;;;;;;;19.17;9.52;;;16.10;86.00;;;;;;4992666;28;20050;-57
2022/05/15 06:37:22;;;;;;;13.82;6.47;;;16.20;86.00;;;;;;4993388;28;20046;-57
2022/05/15 06:39:48;;;;;;;10.48;6.40;;;16.20;84.80;;;;;;4993248;28;20034;-57
2022/05/15 06:42:14;;;;;;;12.52;6.57;;;16.30;84.00;;;;;;4993279;28;20069;-57
2022/05/15 06:44:40;;;;;;;13.73;6.03;;;16.30;84.20;;;;;;4992694;28;20038;-58
2022/05/15 06:47:06;;;;;;;11.60;5.75;;;16.40;84.30;;;;;;4993054;28;20045;-57
2022/05/15 06:49:31;;;;;;;10.98;5.75;;;16.40;85.10;;;;;;4992687;28;20050;-59
2022/05/15 06:51:57;;;;;;;11.18;8.00;;;16.60;84.30;;;;;;4992025;28;20494;-53
2022/05/15 06:54:22;;;;;;;12.57;6.72;;;16.70;83.60;;;;;;4992591;28;20061;-58
2022/05/15 06:59:34;;;;;;;9.98;5.07;;;16.90;82.80;;;;;;4992984;28;20414;-60
2022/05/15 07:02:00;;;;;;;9.68;5.28;;;17.00;82.70;;;;;;4992434;28;20038;-57
2022/05/15 07:04:26;;;;;;;9.98;5.35;;;17.20;82.00;;;;;;4992886;28;20403;-59
2022/05/15 07:06:51;;;;;;;11.07;5.03;;;17.30;81.40;;;;;;4991582;28;20038;-55
2022/05/15 07:09:17;;;;;;;11.90;4.97;;;17.40;80.20;;;;;;4992277;28;20042;-56
2022/05/15 07:11:42;;;;;;;9.57;5.32;;;17.30;80.80;;;;;;4992639;28;20023;-59
2022/05/15 07:14:09;;;;;;;12.00;5.65;;;17.40;80.60;;;;;;4993199;28;20030;-58
2022/05/15 07:16:35;;;;;;;11.77;5.13;;;17.40;80.80;;;;;;4993041;28;20034;-58
2022/05/15 07:19:01;;;;;;;16.90;7.18;;;17.50;80.90;;;;;;4991230;28;20041;-57
2022/05/15 07:21:27;;;;;;;9.45;4.70;;;17.60;80.90;;;;;;4993188;28;20034;-58
2022/05/15 07:23:52;;;;;;;11.85;5.28;;;17.60;79.90;;;;;;4992999;28;20527;-58
2022/05/15 07:26:18;;;;;;;8.57;5.38;;;17.60;79.80;;;;;;4992809;28;20030;-55
2022/05/15 07:28:50;;;;;;;12.70;5.47;;;17.70;79.70;;;;;;4992883;28;20022;-56
2022/05/15 07:31:18;;;;;;;12.13;5.38;;;17.60;79.80;;;;;;4992944;28;20033;-59
2022/05/15 07:33:45;;;;;;;12.82;5.32;;;17.50;79.90;;;;;;4992202;28;20023;-58
2022/05/15 07:36:13;;;;;;;9.98;4.93;;;17.70;79.70;;;;;;4992598;28;20534;-59
2022/05/15 07:38:38;;;;;;;9.88;4.70;;;17.80;79.60;;;;;;4991625;28;20031;-58
2022/05/15 07:41:04;;;;;;;12.18;5.72;;;17.80;79.40;;;;;;4993630;28;20122;-55
2022/05/15 07:43:30;;;;;;;13.07;4.88;;;17.80;79.10;;;;;;4993563;28;20061;-56
2022/05/15 07:45:55;;;;;;;9.23;4.80;;;17.90;78.90;;;;;;4990946;28;20034;-62
2022/05/15 07:48:21;;;;;;;10.57;5.50;;;18.10;78.70;;;;;;4993524;28;20027;-59
2022/05/15 07:50:48;;;;;;;9.15;4.82;;;18.20;78.80;;;;;;4993339;28;20181;-57
2022/05/15 07:53:14;;;;;;;11.93;4.93;;;18.30;78.70;;;;;;4991459;28;20021;-59
2022/05/15 07:55:40;;;;;;;10.73;4.88;;;18.20;77.70;;;;;;4992951;28;20042;-57
2022/05/15 07:58:06;;;;;;;10.82;5.43;;;18.20;77.60;;;;;;4992998;28;20038;-55
2022/05/15 08:00:31;;;;;;;11.55;5.40;;;18.20;77.80;;;;;;4992934;28;20112;-57
2022/05/15 08:03:07;;;;;;;14.63;5.43;;;18.30;77.70;;;;;;4992779;28;20062;-58
2022/05/15 08:08:19;;;;;;;12.35;5.40;;;18.60;77.10;;;;;;4993135;28;20042;-60
2022/05/15 08:10:46;;;;;;;13.15;5.65;;;18.60;77.00;;;;;;4993446;28;20026;-56
2022/05/15 08:13:15;;;;;;;11.70;5.18;;;18.50;77.60;;;;;;4992793;28;20356;-58
2022/05/15 08:15:41;;;;;;;14.27;5.80;;;18.60;76.80;;;;;;4974572;28;20050;-57
2022/05/15 08:23:44;;;;;;;14.10;5.20;;;18.70;77.00;;;;;;4992268;28;20469;-57
2022/05/15 08:26:11;;;;;;;11.45;4.80;;;18.70;76.30;;;;;;4989531;28;20029;-55
2022/05/15 08:28:37;;;;;;;10.02;5.43;;;18.80;76.50;;;;;;4990911;28;20049;-56
2022/05/15 08:31:04;;;;;;;12.50;5.50;;;18.70;76.00;;;;;;4991762;28;20395;-57
2022/05/15 08:33:31;;;;;;;18.08;6.25;;;18.80;75.80;;;;;;4991325;28;20038;-59
2022/05/15 08:35:57;;;;;;;14.90;5.40;;;18.90;76.00;;;;;;4992264;28;20054;-57
2022/05/15 08:38:23;;;;;;;10.20;5.25;;;18.70;76.00;;;;;;4991552;28;20563;-56
2022/05/15 08:40:57;;;;;;;12.25;5.10;;;18.80;75.40;;;;;;4992131;28;20066;-57
2022/05/15 08:43:27;;;;;;;;;;;18.90;75.10;;;;;;4991706;28;20437;-58
2022/05/15 08:46:22;;;;;;;11.25;5.55;;;19.10;75.20;;;;;;4991725;28;19909;-57
2022/05/15 08:48:49;;;;;;;13.50;4.72;;;19.00;74.50;;;;;;4991914;28;20036;-57
2022/05/15 08:51:14;;;;;;;13.45;5.20;;;18.90;75.10;;;;;;4991343;28;20034;-57
2022/05/15 08:53:43;;;;;;;13.02;5.45;;;19.10;75.10;;;;;;4990620;28;20049;-58
2022/05/15 08:56:11;;;;;;;15.10;7.32;;;19.20;75.30;;;;;;4990915;28;20038;-58
2022/05/15 08:58:37;;;;;;;17.00;5.93;;;19.20;74.80;;;;;;4993565;28;20549;-57
2022/05/15 09:01:06;;;;;;;12.77;5.85;;;19.40;74.80;;;;;;4995972;28;20042;-55
2022/05/15 09:03:35;;;;;;;16.05;6.20;;;19.50;74.20;;;;;;4994487;28;20045;-59
2022/05/15 09:06:22;;;;;;;19.60;10.48;;;19.70;73.90;;;;;;4993068;28;20034;-59
2022/05/15 09:09:13;;;;;;;11.25;5.63;;;19.90;73.20;;;;;;5003594;28;20038;-56
2022/05/15 09:12:18;;;;;;;14.20;6.65;;;20.00;72.50;;;;;;5006259;28;20037;-60
2022/05/15 09:14:59;;;;;;;12.57;7.22;;;20.10;72.70;;;;;;5002112;28;20034;-58
2022/05/15 09:17:49;;;;;;;13.73;5.30;;;19.90;72.60;;;;;;5004033;28;20030;-60
2022/05/15 09:20:26;;;;;;;17.90;6.53;;;19.50;72.90;;;;;;5003408;28;20057;-60
2022/05/15 09:23:21;;;;;;;12.25;5.55;;;19.60;72.90;;;;;;5005015;28;20034;-58
2022/05/15 09:25:54;;;;;;;15.68;5.65;;;19.40;72.80;;;;;;5000227;28;20363;-60
2022/05/15 09:28:20;;;;;;;16.10;6.72;;;19.50;72.50;;;;;;5002814;28;20068;-57
2022/05/15 09:30:49;;;;;;;18.10;8.20;;;19.60;73.20;;;;;;5002179;28;20026;-59
2022/05/15 09:33:51;;;;;;;13.60;6.07;;;19.70;73.40;;;;;;5003300;28;20030;-58
2022/05/15 09:36:22;;;;;;;13.90;5.60;;;19.70;73.70;;;;;;4967267;28;20378;-56
2022/05/15 09:38:50;;;;;;;16.55;5.95;;;20.00;73.20;;;;;;5005887;28;20030;-57
2022/05/15 09:44:31;;;;;;;18.48;5.95;;;20.20;71.60;;;;;;5003194;28;20030;-60
2022/05/15 09:47:03;;;;;;;13.50;5.70;;;20.20;71.40;;;;;;5001988;28;20065;-57
2022/05/15 09:49:32;;;;;;;13.55;5.60;;;20.30;71.70;;;;;;5004573;28;20033;-60
2022/05/15 09:52:01;;;;;;;14.20;5.63;;;20.40;71.50;;;;;;5003045;28;20037;-59
2022/05/15 09:54:31;;;;;;;16.83;6.50;;;20.60;71.30;;;;;;4994124;28;20647;-56
2022/05/15 09:57:18;;;;;;;14.18;5.20;;;20.50;71.10;;;;;;5002769;28;20034;-61
2022/05/15 09:59:56;;;;;;;12.05;5.00;;;20.50;70.80;;;;;;5004245;28;20057;-60
2022/05/15 10:02:26;;;;;;;11.32;5.82;;;20.50;70.90;;;;;;5000629;28;20026;-60
2022/05/15 10:04:53;;;;;;;11.98;5.18;;;20.40;70.90;;;;;;5002927;28;20410;-59
2022/05/15 10:07:44;;;;;;;13.70;6.05;;;20.60;71.00;;;;;;5009845;28;20058;-60
2022/05/15 10:10:52;;;;;;;14.20;7.38;;;20.60;70.20;;;;;;4995498;28;20039;-60
2022/05/15 10:13:32;;;;;;;14.30;5.75;;;20.50;70.40;;;;;;5004557;28;20034;-60
2022/05/15 10:16:12;;;;;;;11.82;5.07;;;20.40;69.90;;;;;;5013164;28;20038;-60
2022/05/15 10:19:12;;;;;;;15.02;5.82;;;20.60;70.30;;;;;;5002171;28;20042;-58
2022/05/15 10:21:45;;;;;;;12.55;5.47;;;20.90;69.90;;;;;;4987631;28;20050;-59
2022/05/15 10:24:33;;;;;;;11.48;5.25;;;21.00;69.30;;;;;;4994952;28;20041;-59
2022/05/15 10:27:10;;;;;;;11.98;5.10;;;21.00;69.20;;;;;;5003361;28;20034;-69
2022/05/15 10:29:38;;;;;;;11.48;5.45;;;21.10;69.30;;;;;;5001228;28;20679;-61
2022/05/15 10:32:10;;;;;;;12.38;5.85;;;21.10;68.60;;;;;;5009353;28;20034;-59
2022/05/15 10:34:36;;;;;;;15.68;7.03;;;21.10;68.40;;;;;;5011225;28;20041;-60
2022/05/15 10:37:17;;;;;;;12.05;4.70;;;21.20;68.10;;;;;;5002649;28;20031;-61
2022/05/15 10:39:57;;;;;;;13.02;6.13;;;21.30;67.90;;;;;;4996182;28;20030;-58
2022/05/15 10:42:30;;;;;;;12.02;5.20;;;21.40;67.40;;;;;;5000331;28;20018;-56
2022/05/15 10:45:23;;;;;;;13.27;5.20;;;21.50;66.90;;;;;;4973848;28;20057;-62
2022/05/15 10:48:20;;;;;;;12.57;5.38;;;21.60;66.70;;;;;;4990780;28;20026;-55
2022/05/15 10:51:15;;;;;;;13.57;5.65;;;21.80;66.70;;;;;;4989115;28;20072;-58
2022/05/15 10:59:44;;;;;;;9.40;5.40;;;22.00;65.80;;;;;;4992431;28;20030;-61
2022/05/15 11:02:35;;;;;;;13.67;5.60;;;22.00;64.80;;;;;;4994947;28;20026;-58
2022/05/15 11:05:26;;;;;;;15.65;5.35;;;22.10;65.20;;;;;;4990684;28;20038;-57
2022/05/15 11:08:19;;;;;;;14.88;4.90;;;22.10;65.30;;;;;;5000422;28;20030;-64
2022/05/15 11:11:06;;;;;;;12.65;5.05;;;21.90;67.30;;;;;;4998623;28;20483;-63
2022/05/15 11:13:54;;;;;;;11.55;5.90;;;21.90;66.20;;;;;;4999788;28;20031;-58
2022/05/15 11:16:35;;;;;;;12.23;4.65;;;21.90;65.20;;;;;;4990953;28;20025;-59
2022/05/15 11:19:19;;;;;;;14.63;5.38;;;21.80;65.20;;;;;;4988841;28;20062;-59
2022/05/15 11:22:11;;;;;;;16.15;5.47;;;21.80;65.70;;;;;;4992662;28;20043;-60
2022/05/15 11:24:46;;;;;;;13.55;5.50;;;21.80;66.10;;;;;;4990582;28;20457;-56
2022/05/15 11:27:35;;;;;;;15.02;7.07;;;22.00;65.70;;;;;;4983147;28;20030;-54
2022/05/15 11:30:27;;;;;;;17.85;5.50;;;22.10;66.90;;;;;;4990788;28;20037;-52
2022/05/15 11:32:52;;;;;;;9.80;4.38;;;22.20;67.00;;;;;;4991168;28;20088;-56
2022/05/15 11:35:17;;;;;;;14.90;5.15;;;22.30;66.20;;;;;;4991850;28;20034;-59
2022/05/15 11:38:04;;;;;;;12.40;5.18;;;22.00;64.60;;;;;;4992311;28;20070;-59
2022/05/15 11:40:35;;;;;;;11.60;4.63;;;21.40;66.10;;;;;;4990290;28;20033;-58
2022/05/15 11:43:25;;;;;;;12.05;5.38;;;21.20;66.10;;;;;;4990603;28;20118;-56
2022/05/15 11:45:54;;;;;;;11.27;5.13;;;20.90;66.80;;;;;;4990417;28;20034;-58
2022/05/15 11:48:23;;;;;;;15.82;5.22;;;20.90;67.40;;;;;;4990259;28;20034;-60
2022/05/15 11:51:06;;;;;;;14.40;5.07;;;21.10;67.60;;;;;;4991782;28;20041;-58
2022/05/15 11:53:47;;;;;;;9.13;4.03;;;21.10;67.60;;;;;;4990926;28;20029;-57
2022/05/15 11:56:36;;;;;;;12.98;5.28;;;21.40;66.10;;;;;;4987941;28;20026;-58
2022/05/15 11:59:06;;;;;;;10.70;4.78;;;21.60;66.20;;;;;;4991222;28;20031;-55
2022/05/15 12:01:38;;;;;;;12.10;5.07;;;21.60;67.00;;;;;;4992068;28;20113;-53
2022/05/15 12:04:06;;;;;;;11.02;5.40;;;21.70;66.10;;;;;;4992562;28;20038;-53
2022/05/15 12:07:12;;;;;;;9.90;4.82;;;21.90;66.30;;;;;;4989466;28;20177;-53
2022/05/15 12:09:41;;;;;;;14.95;6.78;;;22.20;64.80;;;;;;4968172;28;20125;-53
2022/05/15 12:12:27;;;;;;;12.40;5.50;;;22.40;64.20;;;;;;4991959;28;20610;-61
2022/05/15 12:15:42;;;;;;;9.98;5.25;;;22.30;63.90;;;;;;4990946;28;20123;-59
2022/05/15 12:18:36;;;;;;;12.95;6.00;;;22.40;64.50;;;;;;4925123;29;20630;-54
2022/05/15 12:21:05;;;;;;;13.87;6.70;;;22.60;64.90;;;;;;4992340;28;20047;-56
2022/05/15 12:23:35;;;;;;;11.43;4.75;;;22.90;63.90;;;;;;4992187;28;20030;-58
2022/05/15 12:26:32;;;;;;;11.88;5.50;;;23.00;64.30;;;;;;4991615;28;20439;-59
2022/05/15 12:29:17;;;;;;;9.77;4.72;;;23.30;63.50;;;;;;4993964;28;20507;-60
2022/05/15 12:31:45;;;;;;;12.02;4.97;;;23.40;63.00;;;;;;4989694;28;20391;-56
2022/05/15 12:34:37;;;;;;;16.75;9.55;;;23.20;62.80;;;;;;4995498;28;20037;-58
2022/05/15 12:37:09;;;;;;;11.38;5.63;;;23.30;62.20;;;;;;4983738;28;20050;-55
2022/05/15 12:39:38;;;;;;;12.55;7.05;;;23.10;62.60;;;;;;4996543;28;20087;-51
2022/05/15 12:42:11;;;;;;;12.23;6.00;;;23.20;61.90;;;;;;4996213;28;20502;-55
2022/05/15 12:44:38;;;;;;;13.05;4.80;;;23.00;61.90;;;;;;4996160;28;20034;-57
2022/05/15 12:47:09;;;;;;;12.75;5.03;;;23.30;60.80;;;;;;4995535;28;20030;-56
2022/05/15 12:49:42;;;;;;;9.63;4.78;;;23.20;61.00;;;;;;4996191;28;20031;-57
2022/05/15 12:52:17;;;;;;;13.80;5.28;;;23.10;60.80;;;;;;4994025;28;20045;-56
2022/05/15 12:54:46;;;;;;;11.82;5.43;;;23.10;61.70;;;;;;4994766;28;20039;-54
2022/05/15 12:57:14;;;;;;;12.07;4.93;;;23.20;61.40;;;;;;4993969;28;20030;-53
2022/05/15 12:59:46;;;;;;;9.18;4.60;;;23.40;61.50;;;;;;4996166;28;20402;-58
2022/05/15 13:02:35;;;;;;;14.02;5.63;;;23.40;61.10;;;;;;4991578;28;20454;-56
2022/05/15 13:05:06;;;;;;;12.32;4.93;;;23.60;61.40;;;;;;4994390;28;20125;-55
2022/05/15 13:07:40;;;;;;;11.50;4.85;;;23.60;60.40;;;;;;4995626;28;20026;-55
2022/05/15 13:10:10;;;;;;;14.35;5.65;;;23.40;60.90;;;;;;4996190;28;20150;-55
2022/05/15 13:12:52;;;;;;;7.95;4.35;;;23.70;59.80;;;;;;4995098;28;20126;-52
2022/05/15 13:15:23;;;;;;;13.82;5.50;;;24.00;59.40;;;;;;4995774;28;20038;-50
2022/05/15 13:17:49;;;;;;;7.70;4.50;;;24.10;59.10;;;;;;4995909;28;20045;-50